Time;durP1;ratioP1;P1;durP2;ratioP2;P2;SDS_P1;SDS_P2;PMS_P1;PMS_P2;Temp;Humidity;BMP_temperature;BMP_pressure;BME280_temperature;BME280_humidity;BME280_pressure;Samples;Min_cycle;Max_cycle;Signal;HPM_P1;HPM_P2
2024/01/23 00:01:25;;;;;;;5.05;1.85;;;;;;;;;;5016839;28;20038;-75
2024/01/23 00:03:50;;;;;;;6.28;1.25;;;;;;;;;;5030286;28;20056;-76
2024/01/23 00:06:16;;;;;;;7.85;1.50;;;;;;;;;;5033228;28;20078;-76
2024/01/23 00:08:41;;;;;;;7.07;1.90;;;;;;;;;;5025706;28;20112;-76
2024/01/23 00:11:06;;;;;;;5.32;1.02;;;;;;;;;;5028281;28;20046;-76
2024/01/23 00:13:32;;;;;;;3.25;1.00;;;;;;;;;;5033291;28;20548;-75
2024/01/23 00:15:57;;;;;;;4.70;1.58;;;;;;;;;;5014416;28;20068;-76
2024/01/23 00:18:23;;;;;;;6.57;1.40;;;;;;;;;;5029368;28;20568;-76
2024/01/23 00:20:48;;;;;;;7.72;1.45;;;;;;;;;;5024259;28;20036;-76
2024/01/23 00:23:14;;;;;;;9.75;1.65;;;;;;;;;;5032953;28;20036;-76
2024/01/23 00:25:39;;;;;;;4.13;1.60;;;;;;;;;;5025868;28;20491;-75
2024/01/23 00:28:06;;;;;;;8.95;1.88;;;;;;;;;;5031517;28;20059;-75
2024/01/23 00:30:31;;;;;;;6.00;1.48;;;;;;;;;;5020946;28;20045;-75
2024/01/23 00:32:56;;;;;;;8.45;1.63;;;;;;;;;;5026125;28;20540;-75
2024/01/23 00:35:22;;;;;;;8.50;1.83;;;;;;;;;;5025229;28;20044;-75
2024/01/23 00:37:47;;;;;;;6.90;1.40;;;;;;;;;;5035277;28;20032;-75
2024/01/23 00:40:13;;;;;;;4.65;1.30;;;;;;;;;;5015670;28;20187;-75
2024/01/23 00:42:38;;;;;;;2.50;1.33;;;;;;;;;;5025522;28;20032;-75
2024/01/23 00:45:03;;;;;;;4.30;1.90;;;;;;;;;;5008609;28;20818;-75
2024/01/23 00:47:30;;;;;;;7.10;1.40;;;;;;;;;;5033850;28;20045;-75
2024/01/23 00:49:56;;;;;;;5.13;1.23;;;;;;;;;;5024467;28;20179;-76
2024/01/23 00:52:21;;;;;;;3.60;1.20;;;;;;;;;;5020767;28;20123;-75
2024/01/23 00:54:47;;;;;;;3.80;1.00;;;;;;;;;;5025106;28;20037;-75
2024/01/23 00:57:12;;;;;;;6.40;1.40;;;;;;;;;;5032886;28;20173;-75
2024/01/23 00:59:38;;;;;;;18.80;1.73;;;;;;;;;;5014657;28;20123;-75
2024/01/23 01:02:03;;;;;;;10.27;1.55;;;;;;;;;;5026046;28;20534;-75
2024/01/23 01:04:28;;;;;;;5.18;1.13;;;;;;;;;;5026299;28;20044;-75
2024/01/23 01:06:54;;;;;;;5.63;1.15;;;;;;;;;;5006423;28;20128;-75
2024/01/23 01:09:19;;;;;;;4.78;1.20;;;;;;;;;;5037805;28;20033;-75
2024/01/23 01:11:45;;;;;;;4.43;0.88;;;;;;;;;;5015432;28;20036;-75
2024/01/23 01:14:10;;;;;;;7.05;1.50;;;;;;;;;;5019309;28;21730;-75
2024/01/23 01:16:35;;;;;;;8.07;1.00;;;;;;;;;;5031993;28;20037;-75
2024/01/23 01:19:01;;;;;;;5.97;1.40;;;;;;;;;;5026651;28;20191;-75
2024/01/23 01:21:26;;;;;;;7.90;1.60;;;;;;;;;;5027137;28;20033;-75
2024/01/23 01:23:52;;;;;;;4.78;0.77;;;;;;;;;;5030083;28;20033;-76
2024/01/23 01:26:17;;;;;;;4.68;1.20;;;;;;;;;;5030524;28;20052;-75
2024/01/23 01:28:43;;;;;;;2.53;0.77;;;;;;;;;;5013697;28;20037;-75
2024/01/23 01:31:08;;;;;;;5.45;0.93;;;;;;;;;;5028845;28;20406;-75
2024/01/23 01:33:33;;;;;;;2.63;1.13;;;;;;;;;;5026762;28;20103;-75
2024/01/23 01:35:59;;;;;;;2.55;0.95;;;;;;;;;;5032416;28;20037;-76
2024/01/23 01:38:24;;;;;;;3.72;0.90;;;;;;;;;;5015118;28;20490;-76
2024/01/23 01:40:50;;;;;;;5.00;1.30;;;;;;;;;;5027346;28;20075;-75
2024/01/23 01:43:25;;;;;;;3.88;1.25;;;;;;;;;;5019638;28;20029;-75
2024/01/23 01:46:00;;;;;;;3.60;0.85;;;;;;;;;;5032752;28;20039;-75
2024/01/23 01:48:26;;;;;;;3.67;0.95;;;;;;;;;;5033635;28;20468;-75
2024/01/23 01:50:51;;;;;;;3.70;1.20;;;;;;;;;;5026370;28;20049;-75
2024/01/23 01:53:17;;;;;;;1.63;0.50;;;;;;;;;;5033480;28;20037;-75
2024/01/23 01:55:43;;;;;;;1.75;0.30;;;;;;;;;;5015467;28;20107;-75
2024/01/23 01:58:09;;;;;;;1.55;0.32;;;;;;;;;;5021903;28;20041;-75
2024/01/23 02:00:34;;;;;;;1.35;0.22;;;;;;;;;;5025011;28;20033;-75
2024/01/23 02:03:00;;;;;;;0.80;0.30;;;;;;;;;;5035229;28;20064;-75
2024/01/23 02:05:25;;;;;;;1.75;0.30;;;;;;;;;;5025306;28;20041;-75
2024/01/23 02:07:51;;;;;;;0.35;0.28;;;;;;;;;;5029796;28;20037;-75
2024/01/23 02:10:16;;;;;;;3.58;0.63;;;;;;;;;;5008491;28;20104;-75
2024/01/23 02:12:42;;;;;;;0.50;0.30;;;;;;;;;;5024025;28;20040;-75
2024/01/23 02:15:08;;;;;;;3.30;0.50;;;;;;;;;;5038265;28;20036;-75
2024/01/23 02:17:33;;;;;;;0.40;0.20;;;;;;;;;;5032451;28;20048;-75
2024/01/23 02:19:58;;;;;;;0.30;0.20;;;;;;;;;;5018423;28;20037;-75
2024/01/23 02:22:24;;;;;;;2.10;0.25;;;;;;;;;;5017953;28;20065;-75
2024/01/23 02:24:49;;;;;;;1.52;0.35;;;;;;;;;;5014635;28;20037;-75
2024/01/23 02:27:14;;;;;;;3.42;0.70;;;;;;;;;;5029329;28;20038;-75
2024/01/23 02:29:40;;;;;;;1.83;0.60;;;;;;;;;;5024856;28;20036;-75
2024/01/23 02:32:06;;;;;;;0.63;0.60;;;;;;;;;;5023351;28;20036;-75
2024/01/23 02:34:31;;;;;;;0.85;0.40;;;;;;;;;;5029321;28;20477;-75
2024/01/23 02:36:57;;;;;;;2.42;0.40;;;;;;;;;;5034624;28;20112;-75
2024/01/23 02:39:22;;;;;;;0.20;0.17;;;;;;;;;;5017428;28;20068;-74
2024/01/23 02:41:48;;;;;;;2.05;0.30;;;;;;;;;;5016664;28;20034;-75
2024/01/23 02:44:13;;;;;;;0.68;0.40;;;;;;;;;;5025580;28;20040;-75
2024/01/23 02:46:42;;;;;;;0.90;0.40;;;;;;;;;;5038482;28;20041;-75
2024/01/23 02:49:07;;;;;;;1.90;0.30;;;;;;;;;;5042246;28;20082;-75
2024/01/23 02:51:32;;;;;;;1.33;0.40;;;;;;;;;;5018604;28;20068;-74
2024/01/23 02:53:59;;;;;;;0.98;0.38;;;;;;;;;;5018259;28;20049;-75
2024/01/23 02:56:25;;;;;;;0.30;0.30;;;;;;;;;;5030243;28;20052;-75
2024/01/23 02:58:50;;;;;;;1.02;0.30;;;;;;;;;;5042237;28;20044;-75
2024/01/23 03:01:15;;;;;;;2.30;0.50;;;;;;;;;;5036711;28;20611;-75
2024/01/23 03:03:41;;;;;;;0.17;0.17;;;;;;;;;;5035711;28;20072;-74
2024/01/23 03:06:06;;;;;;;0.25;0.25;;;;;;;;;;5035560;28;20041;-75
2024/01/23 03:08:31;;;;;;;0.20;0.20;;;;;;;;;;5006459;28;20034;-75
2024/01/23 03:10:57;;;;;;;2.50;0.60;;;;;;;;;;5028089;28;20183;-75
2024/01/23 03:13:22;;;;;;;2.13;0.32;;;;;;;;;;5035846;28;20037;-75
2024/01/23 03:15:49;;;;;;;2.47;0.68;;;;;;;;;;5033061;28;20037;-74
2024/01/23 03:18:14;;;;;;;1.40;0.50;;;;;;;;;;5040643;28;20049;-75
2024/01/23 03:20:40;;;;;;;2.63;0.70;;;;;;;;;;5034660;28;20093;-75
2024/01/23 03:23:05;;;;;;;0.47;0.40;;;;;;;;;;5032694;28;20042;-75
2024/01/23 03:25:30;;;;;;;0.52;0.20;;;;;;;;;;5034435;28;20048;-75
2024/01/23 03:27:56;;;;;;;1.40;0.32;;;;;;;;;;5031934;28;20037;-75
2024/01/23 03:30:31;;;;;;;1.90;1.25;;;;;;;;;;5041122;28;20051;-75
2024/01/23 03:32:58;;;;;;;1.38;0.55;;;;;;;;;;5033600;28;20215;-75
2024/01/23 03:35:24;;;;;;;1.65;0.45;;;;;;;;;;5025676;28;20085;-75
2024/01/23 03:37:50;;;;;;;1.42;0.40;;;;;;;;;;5033827;28;20055;-75
2024/01/23 03:40:15;;;;;;;1.63;0.70;;;;;;;;;;5034022;28;20071;-74
2024/01/23 03:42:41;;;;;;;1.08;0.50;;;;;;;;;;5041424;28;20409;-75
2024/01/23 03:45:08;;;;;;;2.15;0.60;;;;;;;;;;5038428;28;20075;-74
2024/01/23 03:47:33;;;;;;;1.20;0.38;;;;;;;;;;5034159;28;20131;-74
2024/01/23 03:49:59;;;;;;;0.60;0.60;;;;;;;;;;5022255;28;20651;-74
2024/01/23 03:52:24;;;;;;;1.58;0.50;;;;;;;;;;5030754;28;20039;-74
2024/01/23 03:54:50;;;;;;;1.38;0.70;;;;;;;;;;5030506;28;20117;-74
2024/01/23 03:57:15;;;;;;;1.38;0.50;;;;;;;;;;5029339;28;20044;-74
2024/01/23 03:59:44;;;;;;;3.47;0.82;;;;;;;;;;5016818;28;20051;-74
2024/01/23 04:02:10;;;;;;;2.08;0.65;;;;;;;;;;5039810;28;20036;-74
2024/01/23 04:04:36;;;;;;;3.28;0.82;;;;;;;;;;5027383;28;20425;-74
2024/01/23 04:07:02;;;;;;;2.83;0.90;;;;;;;;;;5037290;28;20037;-74
2024/01/23 04:09:28;;;;;;;6.78;1.15;;;;;;;;;;5034192;28;20535;-75
2024/01/23 04:11:53;;;;;;;1.23;0.60;;;;;;;;;;5033901;28;20448;-74
2024/01/23 04:14:19;;;;;;;4.03;1.08;;;;;;;;;;5037105;28;20040;-75
2024/01/23 04:16:44;;;;;;;2.50;0.80;;;;;;;;;;5040121;28;20405;-74
2024/01/23 04:19:10;;;;;;;5.93;0.90;;;;;;;;;;5019945;28;20080;-74
2024/01/23 04:21:35;;;;;;;1.23;1.10;;;;;;;;;;5034145;28;20124;-75
2024/01/23 04:24:01;;;;;;;1.75;0.85;;;;;;;;;;5034128;28;20163;-74
2024/01/23 04:26:27;;;;;;;6.93;1.55;;;;;;;;;;5034220;28;20500;-74
2024/01/23 04:28:52;;;;;;;3.45;1.00;;;;;;;;;;5032831;28;20037;-75
2024/01/23 04:31:18;;;;;;;0.65;0.57;;;;;;;;;;5033142;28;20049;-74
2024/01/23 04:33:45;;;;;;;7.95;1.70;;;;;;;;;;5015853;28;20128;-74
2024/01/23 04:36:11;;;;;;;1.92;0.90;;;;;;;;;;5028919;28;20033;-74
2024/01/23 04:38:37;;;;;;;7.10;0.98;;;;;;;;;;5035502;28;20043;-74
2024/01/23 04:41:02;;;;;;;2.00;0.60;;;;;;;;;;5034150;28;20148;-74
2024/01/23 04:43:28;;;;;;;0.93;0.63;;;;;;;;;;5034244;28;20127;-74
2024/01/23 04:45:54;;;;;;;2.03;0.60;;;;;;;;;;5030974;28;20048;-74
2024/01/23 04:48:19;;;;;;;1.70;0.65;;;;;;;;;;5028106;28;20048;-75
2024/01/23 04:50:44;;;;;;;0.68;0.68;;;;;;;;;;5029274;28;20041;-75
2024/01/23 04:53:10;;;;;;;2.75;0.57;;;;;;;;;;5027567;28;20043;-75
2024/01/23 04:55:35;;;;;;;2.42;0.52;;;;;;;;;;5018509;28;20036;-74
2024/01/23 04:58:00;;;;;;;2.03;0.93;;;;;;;;;;5021901;28;20433;-75
2024/01/23 05:00:26;;;;;;;3.42;1.10;;;;;;;;;;5039324;28;20419;-74
2024/01/23 05:02:52;;;;;;;2.00;1.08;;;;;;;;;;5021852;28;20046;-74
2024/01/23 05:05:17;;;;;;;3.13;1.15;;;;;;;;;;5032112;28;20690;-74
2024/01/23 05:07:42;;;;;;;2.95;1.08;;;;;;;;;;5038017;28;20040;-74
2024/01/23 05:10:08;;;;;;;2.00;0.98;;;;;;;;;;5028796;28;20050;-74
2024/01/23 05:12:34;;;;;;;3.40;1.10;;;;;;;;;;5035003;28;20601;-74
2024/01/23 05:15:01;;;;;;;3.70;1.33;;;;;;;;;;5023212;28;20041;-74
2024/01/23 05:17:26;;;;;;;4.47;1.42;;;;;;;;;;5022612;28;20180;-74
2024/01/23 05:19:52;;;;;;;5.22;2.20;;;;;;;;;;5029868;28;20112;-74
2024/01/23 05:22:17;;;;;;;2.85;1.17;;;;;;;;;;5035623;28;20439;-75
2024/01/23 05:24:42;;;;;;;7.63;2.35;;;;;;;;;;5024105;28;20051;-75
2024/01/23 05:27:08;;;;;;;7.75;2.08;;;;;;;;;;5025762;28;20052;-75
2024/01/23 05:29:33;;;;;;;5.72;2.45;;;;;;;;;;5027160;28;20070;-75
2024/01/23 05:31:58;;;;;;;3.60;1.10;;;;;;;;;;5028590;28;20053;-75
2024/01/23 05:34:24;;;;;;;6.65;2.03;;;;;;;;;;5025796;28;20040;-75
2024/01/23 05:36:49;;;;;;;5.55;1.90;;;;;;;;;;5020250;28;20128;-75
2024/01/23 05:39:16;;;;;;;7.90;2.03;;;;;;;;;;5029921;28;20484;-75
2024/01/23 05:41:42;;;;;;;3.67;1.10;;;;;;;;;;5028638;28;20036;-75
2024/01/23 05:44:07;;;;;;;11.57;2.60;;;;;;;;;;5032819;28;20037;-75
2024/01/23 05:46:33;;;;;;;3.00;1.92;;;;;;;;;;5035958;28;20094;-75
2024/01/23 05:48:59;;;;;;;11.48;2.10;;;;;;;;;;5029077;28;20103;-74
2024/01/23 05:51:25;;;;;;;12.90;1.88;;;;;;;;;;5030622;28;20076;-74
2024/01/23 05:53:50;;;;;;;3.65;1.45;;;;;;;;;;5025469;28;20076;-74
2024/01/23 05:56:16;;;;;;;4.53;1.92;;;;;;;;;;5031149;28;20128;-74
2024/01/23 05:58:42;;;;;;;8.75;2.30;;;;;;;;;;5025449;28;20128;-75
2024/01/23 06:01:07;;;;;;;4.20;1.65;;;;;;;;;;5033230;28;20436;-74
2024/01/23 06:03:33;;;;;;;12.68;2.60;;;;;;;;;;5035833;28;20116;-74
2024/01/23 06:05:59;;;;;;;4.53;1.80;;;;;;;;;;5039189;28;20688;-74
2024/01/23 06:08:25;;;;;;;11.05;2.50;;;;;;;;;;5037324;28;20112;-74
2024/01/23 06:10:50;;;;;;;8.98;2.72;;;;;;;;;;5024335;28;20084;-74
2024/01/23 06:13:17;;;;;;;2.72;1.67;;;;;;;;;;5009826;28;20172;-74
2024/01/23 06:15:42;;;;;;;2.53;1.00;;;;;;;;;;5021375;28;20103;-75
2024/01/23 06:18:08;;;;;;;5.20;1.65;;;;;;;;;;5024196;28;20053;-74
2024/01/23 06:20:33;;;;;;;1.77;0.57;;;;;;;;;;5021895;28;20041;-74
2024/01/23 06:22:58;;;;;;;7.00;1.95;;;;;;;;;;5024804;28;20056;-74
2024/01/23 06:25:24;;;;;;;8.45;2.17;;;;;;;;;;5032760;28;20046;-74
2024/01/23 06:27:49;;;;;;;3.55;1.40;;;;;;;;;;5008790;28;20071;-73
2024/01/23 06:30:15;;;;;;;7.60;1.83;;;;;;;;;;5024875;28;20140;-74
2024/01/23 06:32:41;;;;;;;12.52;2.25;;;;;;;;;;5024215;28;20045;-73
2024/01/23 06:35:07;;;;;;;6.53;1.70;;;;;;;;;;5032629;28;20033;-74
2024/01/23 06:37:34;;;;;;;7.93;2.05;;;;;;;;;;5042046;28;20032;-74
2024/01/23 06:39:59;;;;;;;7.18;1.85;;;;;;;;;;5039442;28;20029;-74
2024/01/23 06:42:25;;;;;;;3.72;1.00;;;;;;;;;;5022197;28;20115;-73
2024/01/23 06:44:50;;;;;;;6.97;1.35;;;;;;;;;;5023820;28;20044;-74
2024/01/23 06:47:17;;;;;;;6.32;1.73;;;;;;;;;;5034279;28;20909;-74
2024/01/23 06:49:42;;;;;;;9.13;1.98;;;;;;;;;;5043664;28;20033;-73
2024/01/23 06:52:08;;;;;;;8.30;2.00;;;;;;;;;;5034032;28;20036;-73
2024/01/23 06:54:33;;;;;;;8.93;1.83;;;;;;;;;;5038615;28;20044;-73
2024/01/23 06:56:59;;;;;;;10.18;2.20;;;;;;;;;;5030913;28;20048;-73
2024/01/23 06:59:25;;;;;;;9.60;2.03;;;;;;;;;;5036649;28;20061;-74
2024/01/23 07:01:50;;;;;;;11.68;2.03;;;;;;;;;;5029950;28;20049;-74
2024/01/23 07:04:15;;;;;;;11.02;2.75;;;;;;;;;;5033714;28;20053;-73
2024/01/23 07:06:41;;;;;;;6.32;2.13;;;;;;;;;;5050038;28;20464;-74
2024/01/23 07:09:06;;;;;;;12.13;2.63;;;;;;;;;;5023521;28;20067;-73
2024/01/23 07:11:31;;;;;;;2.88;0.88;;;;;;;;;;5017332;28;20053;-73
2024/01/23 07:13:57;;;;;;;8.07;2.45;;;;;;;;;;5035566;28;20072;-73
2024/01/23 07:16:22;;;;;;;9.60;2.28;;;;;;;;;;5028521;28;20180;-74
2024/01/23 07:18:48;;;;;;;9.80;2.78;;;;;;;;;;5025975;28;20033;-74
2024/01/23 07:21:13;;;;;;;7.97;2.10;;;;;;;;;;5024999;28;20559;-74
2024/01/23 07:23:39;;;;;;;6.53;2.15;;;;;;;;;;5029841;28;20052;-73
2024/01/23 07:26:05;;;;;;;6.05;1.55;;;;;;;;;;5020603;28;20032;-73
2024/01/23 07:28:30;;;;;;;9.23;2.38;;;;;;;;;;5033655;28;20122;-73
2024/01/23 07:30:56;;;;;;;14.48;2.60;;;;;;;;;;5029084;28;20104;-73
2024/01/23 07:33:21;;;;;;;4.88;1.30;;;;;;;;;;5034924;28;20866;-73
2024/01/23 07:35:46;;;;;;;6.25;2.03;;;;;;;;;;5033741;28;20691;-73
2024/01/23 07:38:12;;;;;;;7.75;2.05;;;;;;;;;;5035127;28;20048;-73
2024/01/23 07:40:38;;;;;;;11.27;2.35;;;;;;;;;;5024817;28;20049;-73
2024/01/23 07:43:04;;;;;;;4.07;1.55;;;;;;;;;;5035719;28;20033;-73
2024/01/23 07:45:29;;;;;;;7.78;1.90;;;;;;;;;;5045050;28;20688;-73
2024/01/23 07:47:55;;;;;;;9.63;2.10;;;;;;;;;;5028608;28;20025;-73
2024/01/23 07:50:20;;;;;;;7.78;2.35;;;;;;;;;;5033568;28;20039;-73
2024/01/23 07:52:46;;;;;;;8.43;2.42;;;;;;;;;;5022921;28;20048;-73
2024/01/23 07:55:11;;;;;;;7.93;1.80;;;;;;;;;;5014195;28;20218;-73
2024/01/23 07:57:36;;;;;;;11.85;1.88;;;;;;;;;;5024478;28;20169;-73
2024/01/23 08:00:03;;;;;;;5.25;1.42;;;;;;;;;;5021575;28;20041;-73
2024/01/23 08:02:29;;;;;;;2.88;1.40;;;;;;;;;;5030579;28;20038;-74
2024/01/23 08:04:54;;;;;;;6.78;2.00;;;;;;;;;;5025648;28;20563;-73
2024/01/23 08:07:20;;;;;;;3.35;1.58;;;;;;;;;;5032456;28;20063;-73
2024/01/23 08:09:45;;;;;;;12.38;2.55;;;;;;;;;;5021708;28;20552;-73
2024/01/23 08:12:11;;;;;;;2.15;1.00;;;;;;;;;;5032133;28;20207;-73
2024/01/23 08:14:36;;;;;;;7.72;2.22;;;;;;;;;;5030789;28;20429;-73
2024/01/23 08:17:02;;;;;;;5.88;1.67;;;;;;;;;;5035628;28;20135;-73
2024/01/23 08:19:27;;;;;;;8.30;1.80;;;;;;;;;;5030444;28;20045;-73
2024/01/23 08:21:53;;;;;;;8.95;1.98;;;;;;;;;;5032820;28;20040;-73
2024/01/23 08:24:18;;;;;;;4.32;1.55;;;;;;;;;;5019591;28;20583;-73
2024/01/23 08:26:43;;;;;;;5.03;1.45;;;;;;;;;;5020394;28;20869;-73
2024/01/23 08:29:09;;;;;;;13.18;2.92;;;;;;;;;;5032483;28;20040;-73
2024/01/23 08:31:34;;;;;;;6.93;1.98;;;;;;;;;;5012770;28;20056;-73
2024/01/23 08:34:00;;;;;;;8.10;2.33;;;;;;;;;;5037679;28;20692;-73
2024/01/23 08:36:25;;;;;;;8.32;1.63;;;;;;;;;;5039074;28;20048;-73
2024/01/23 08:38:51;;;;;;;10.15;2.53;;;;;;;;;;5020602;28;20127;-73
2024/01/23 08:41:16;;;;;;;12.02;2.20;;;;;;;;;;5034994;28;20404;-73
2024/01/23 08:43:42;;;;;;;11.85;2.70;;;;;;;;;;5034596;28;20036;-74
2024/01/23 08:46:07;;;;;;;3.35;1.52;;;;;;;;;;5034915;28;20048;-74
2024/01/23 08:48:32;;;;;;;8.95;2.00;;;;;;;;;;5029965;28;20153;-73
2024/01/23 08:50:58;;;;;;;7.70;1.20;;;;;;;;;;5029645;28;20626;-73
2024/01/23 08:53:23;;;;;;;4.97;1.55;;;;;;;;;;5029166;28;21166;-73
2024/01/23 08:55:49;;;;;;;7.90;1.80;;;;;;;;;;5026594;28;20086;-73
2024/01/23 08:58:18;;;;;;;11.43;2.83;;;;;;;;;;5025171;28;20919;-73
2024/01/23 09:00:44;;;;;;;8.48;2.70;;;;;;;;;;5032052;28;20040;-73
2024/01/23 09:03:09;;;;;;;15.10;2.63;;;;;;;;;;5023536;28;20045;-73
2024/01/23 09:05:34;;;;;;;13.13;2.78;;;;;;;;;;5024887;28;20070;-73
2024/01/23 09:08:01;;;;;;;11.85;2.70;;;;;;;;;;5014139;28;20091;-74
2024/01/23 09:10:27;;;;;;;10.52;2.45;;;;;;;;;;5029483;28;20048;-73
2024/01/23 09:12:53;;;;;;;2.42;1.50;;;;;;;;;;5031869;28;20120;-74
2024/01/23 09:15:18;;;;;;;8.57;2.47;;;;;;;;;;5027458;28;20111;-73
2024/01/23 09:17:43;;;;;;;8.32;2.13;;;;;;;;;;5029808;28;20887;-73
2024/01/23 09:20:10;;;;;;;8.63;2.45;;;;;;;;;;5018410;28;20037;-73
2024/01/23 09:22:35;;;;;;;8.63;1.75;;;;;;;;;;5026581;28;20705;-73
2024/01/23 09:25:03;;;;;;;7.00;2.15;;;;;;;;;;5011188;28;20045;-74
2024/01/23 09:27:29;;;;;;;7.45;2.33;;;;;;;;;;5018327;28;20525;-73
2024/01/23 09:29:54;;;;;;;6.47;2.22;;;;;;;;;;5020543;28;20064;-73
2024/01/23 09:32:19;;;;;;;11.48;2.60;;;;;;;;;;5017338;28;20053;-73
2024/01/23 09:34:47;;;;;;;7.18;2.38;;;;;;;;;;5026531;28;20445;-73
2024/01/23 09:37:13;;;;;;;6.47;2.45;;;;;;;;;;5006504;28;20158;-73
2024/01/23 09:39:38;;;;;;;6.90;2.22;;;;;;;;;;5029197;28;20043;-73
2024/01/23 09:42:04;;;;;;;7.65;2.33;;;;;;;;;;5029352;28;20087;-73
2024/01/23 09:44:30;;;;;;;6.60;2.45;;;;;;;;;;5028829;28;20460;-73
2024/01/23 09:46:57;;;;;;;4.30;1.80;;;;;;;;;;5026367;28;20090;-73
2024/01/23 09:49:22;;;;;;;4.60;1.85;;;;;;;;;;5032206;28;20462;-73
2024/01/23 09:51:49;;;;;;;3.53;1.65;;;;;;;;;;5025135;28;20029;-73
2024/01/23 09:54:15;;;;;;;2.50;1.10;;;;;;;;;;5029090;28;20057;-72
2024/01/23 09:56:40;;;;;;;9.40;2.78;;;;;;;;;;5028953;28;20079;-73
2024/01/23 09:59:06;;;;;;;12.23;3.47;;;;;;;;;;5031199;28;20037;-73
2024/01/23 10:01:33;;;;;;;8.70;2.90;;;;;;;;;;5024763;28;20489;-73
2024/01/23 10:04:00;;;;;;;8.93;2.05;;;;;;;;;;5036581;28;20077;-73
2024/01/23 10:06:25;;;;;;;4.38;2.03;;;;;;;;;;5003830;28;20074;-73
2024/01/23 10:08:51;;;;;;;15.27;2.90;;;;;;;;;;5030626;28;20045;-73
2024/01/23 10:11:16;;;;;;;10.23;2.30;;;;;;;;;;5031737;28;20468;-73
2024/01/23 10:13:43;;;;;;;5.90;2.00;;;;;;;;;;5030748;28;20549;-73
2024/01/23 10:16:10;;;;;;;4.72;2.25;;;;;;;;;;5024763;28;20123;-73
2024/01/23 10:18:35;;;;;;;9.75;2.67;;;;;;;;;;5028776;28;20095;-74
2024/01/23 10:21:01;;;;;;;8.27;2.42;;;;;;;;;;5021563;28;20041;-73
2024/01/23 10:23:29;;;;;;;11.68;3.47;;;;;;;;;;5025206;28;20045;-73
2024/01/23 10:25:58;;;;;;;8.88;2.53;;;;;;;;;;5027583;28;20033;-73
2024/01/23 10:28:24;;;;;;;7.47;2.28;;;;;;;;;;5031017;28;20124;-73
2024/01/23 10:30:49;;;;;;;5.03;1.83;;;;;;;;;;5031706;28;20561;-73
2024/01/23 10:33:16;;;;;;;18.35;2.40;;;;;;;;;;5034668;28;20044;-73
2024/01/23 10:35:42;;;;;;;9.90;3.05;;;;;;;;;;5017261;28;20042;-73
2024/01/23 10:38:10;;;;;;;9.63;2.80;;;;;;;;;;5033077;28;20071;-73
2024/01/23 10:40:37;;;;;;;11.50;3.22;;;;;;;;;;5030096;28;20500;-73
2024/01/23 10:43:03;;;;;;;14.48;3.67;;;;;;;;;;5035617;28;20029;-73
2024/01/23 10:45:31;;;;;;;7.00;1.98;;;;;;;;;;5033603;28;20091;-74
2024/01/23 10:47:59;;;;;;;10.60;3.20;;;;;;;;;;5026638;28;20033;-73
2024/01/23 10:50:24;;;;;;;6.18;2.67;;;;;;;;;;5034377;28;20048;-74
2024/01/23 10:52:49;;;;;;;10.48;2.90;;;;;;;;;;5036188;28;20083;-74
2024/01/23 10:55:21;;;;;;;15.98;4.50;;;;;;;;;;5031566;28;20036;-74
2024/01/23 10:57:47;;;;;;;19.00;8.02;;;;;;;;;;5009115;28;20041;-73
2024/01/23 11:00:16;;;;;;;13.25;5.03;;;;;;;;;;5033173;28;20052;-73
2024/01/23 11:03:04;;;;;;;17.90;5.93;;;;;;;;;;5022124;28;20076;-73
2024/01/23 11:05:53;;;;;;;7.03;2.83;;;;;;;;;;5037303;28;20120;-73
2024/01/23 11:08:26;;;;;;;15.68;5.93;;;;;;;;;;5037492;28;20044;-73
2024/01/23 11:11:04;;;;;;;11.63;4.82;;;;;;;;;;5009427;28;20079;-74
2024/01/23 11:13:46;;;;;;;15.32;5.88;;;;;;;;;;5029008;28;20140;-73
2024/01/23 11:16:12;;;;;;;13.65;4.07;;;;;;;;;;5043333;28;20044;-73
2024/01/23 11:18:39;;;;;;;15.77;3.33;;;;;;;;;;5039943;28;20047;-73
2024/01/23 11:21:05;;;;;;;10.18;2.70;;;;;;;;;;5041799;28;20052;-74
2024/01/23 11:23:31;;;;;;;14.32;3.40;;;;;;;;;;5022217;28;20056;-73
2024/01/23 11:26:26;;;;;;;6.72;3.15;;;;;;;;;;5039491;28;20056;-73
2024/01/23 11:28:53;;;;;;;9.45;2.85;;;;;;;;;;5038838;28;20048;-74
2024/01/23 11:31:22;;;;;;;11.43;3.60;;;;;;;;;;5035952;28;20050;-73
2024/01/23 11:33:51;;;;;;;10.13;2.95;;;;;;;;;;5018312;28;20040;-73
2024/01/23 11:36:26;;;;;;;5.85;1.80;;;;;;;;;;5026976;28;20036;-73
2024/01/23 11:38:56;;;;;;;7.32;2.55;;;;;;;;;;5031315;28;20048;-74
2024/01/23 11:41:27;;;;;;;10.70;2.60;;;;;;;;;;5029077;28;20040;-73
2024/01/23 11:44:01;;;;;;;10.02;3.15;;;;;;;;;;5022576;28;20607;-73
2024/01/23 11:46:27;;;;;;;6.05;2.58;;;;;;;;;;5010461;28;20053;-73
2024/01/23 11:48:53;;;;;;;13.70;3.10;;;;;;;;;;5024355;28;20056;-74
2024/01/23 11:51:20;;;;;;;15.27;3.33;;;;;;;;;;5034454;28;20056;-73
2024/01/23 11:53:46;;;;;;;8.88;2.80;;;;;;;;;;5034369;28;20041;-74
2024/01/23 11:56:13;;;;;;;7.00;2.83;;;;;;;;;;5033726;28;20048;-74
2024/01/23 11:58:40;;;;;;;10.93;2.83;;;;;;;;;;5034574;28;20037;-74
2024/01/23 12:01:07;;;;;;;7.07;2.35;;;;;;;;;;5024737;28;20108;-73
2024/01/23 12:03:34;;;;;;;7.90;2.78;;;;;;;;;;5035232;28;20089;-73
2024/01/23 12:06:00;;;;;;;12.50;3.17;;;;;;;;;;5033306;28;20044;-73
2024/01/23 12:08:26;;;;;;;12.93;3.53;;;;;;;;;;5029265;28;20091;-73
2024/01/23 12:10:52;;;;;;;19.20;3.88;;;;;;;;;;5032092;28;20037;-73
2024/01/23 12:13:17;;;;;;;15.18;3.17;;;;;;;;;;5019116;28;20049;-73
2024/01/23 12:15:43;;;;;;;9.73;3.15;;;;;;;;;;5004107;28;20075;-73
2024/01/23 12:18:17;;;;;;;13.60;2.63;;;;;;;;;;5025691;28;20123;-73
2024/01/23 12:20:47;;;;;;;8.00;2.85;;;;;;;;;;5015433;28;20751;-74
2024/01/23 12:23:13;;;;;;;8.38;3.03;;;;;;;;;;5026902;28;20025;-73
2024/01/23 12:25:39;;;;;;;14.88;3.45;;;;;;;;;;5010318;28;20052;-73
2024/01/23 12:28:04;;;;;;;13.80;3.70;;;;;;;;;;5011686;28;20562;-73
2024/01/23 12:30:30;;;;;;;11.60;3.00;;;;;;;;;;5024216;28;20041;-73
2024/01/23 12:32:57;;;;;;;10.68;2.78;;;;;;;;;;5027831;28;20029;-73
2024/01/23 12:35:22;;;;;;;3.50;1.35;;;;;;;;;;5029107;28;20044;-73
2024/01/23 12:37:50;;;;;;;5.57;1.67;;;;;;;;;;5033475;28;20119;-74
2024/01/23 12:40:16;;;;;;;10.73;2.65;;;;;;;;;;5039171;28;20202;-73
2024/01/23 12:42:43;;;;;;;6.45;2.13;;;;;;;;;;5023129;28;20561;-73
2024/01/23 12:45:14;;;;;;;9.38;3.38;;;;;;;;;;5034227;28;20037;-73
2024/01/23 12:47:41;;;;;;;10.32;2.25;;;;;;;;;;5034656;28;20041;-73
2024/01/23 12:50:14;;;;;;;7.47;2.85;;;;;;;;;;5024529;28;20045;-73
2024/01/23 12:52:40;;;;;;;1.92;1.27;;;;;;;;;;5022917;28;20699;-73
2024/01/23 12:55:07;;;;;;;16.48;3.60;;;;;;;;;;5020632;28;20044;-73
2024/01/23 12:57:32;;;;;;;11.73;2.20;;;;;;;;;;5027027;28;20124;-73
2024/01/23 12:59:57;;;;;;;7.88;2.40;;;;;;;;;;5025096;28;20493;-73
2024/01/23 13:02:23;;;;;;;6.03;2.40;;;;;;;;;;5034441;28;20124;-73
2024/01/23 13:04:49;;;;;;;7.75;2.15;;;;;;;;;;5021777;28;20037;-73
2024/01/23 13:07:14;;;;;;;10.18;2.85;;;;;;;;;;5025209;28;20037;-73
2024/01/23 13:09:39;;;;;;;9.93;2.65;;;;;;;;;;5017355;28;20967;-73
2024/01/23 13:12:05;;;;;;;7.88;2.15;;;;;;;;;;5022167;28;20525;-73
2024/01/23 13:14:34;;;;;;;12.40;2.30;;;;;;;;;;5033114;28;20037;-73
2024/01/23 13:17:00;;;;;;;8.15;2.42;;;;;;;;;;5034172;28;20037;-73
2024/01/23 13:19:25;;;;;;;8.52;2.38;;;;;;;;;;5034475;28;20083;-73
2024/01/23 13:21:50;;;;;;;8.38;2.22;;;;;;;;;;5023566;28;20037;-74
2024/01/23 13:24:16;;;;;;;6.90;1.63;;;;;;;;;;5015390;28;20558;-73
2024/01/23 13:26:41;;;;;;;10.45;2.45;;;;;;;;;;5028182;28;20041;-73
2024/01/23 13:29:09;;;;;;;10.48;2.00;;;;;;;;;;5029480;28;20045;-73
2024/01/23 13:31:35;;;;;;;8.55;2.22;;;;;;;;;;5031883;28;20045;-73
2024/01/23 13:34:02;;;;;;;8.02;2.13;;;;;;;;;;5020972;28;20053;-73
2024/01/23 13:36:28;;;;;;;6.82;1.95;;;;;;;;;;5034316;28;20061;-73
2024/01/23 13:38:53;;;;;;;7.95;2.28;;;;;;;;;;5020577;28;20048;-73
2024/01/23 13:41:19;;;;;;;6.00;1.90;;;;;;;;;;5033994;28;20156;-73
2024/01/23 13:43:45;;;;;;;10.60;2.45;;;;;;;;;;5025723;28;20065;-73
2024/01/23 13:46:11;;;;;;;11.90;2.38;;;;;;;;;;5030436;28;20736;-73
2024/01/23 13:48:37;;;;;;;8.63;2.10;;;;;;;;;;5022353;28;20506;-73
2024/01/23 13:51:03;;;;;;;9.63;2.28;;;;;;;;;;5025309;28;20398;-73
2024/01/23 13:53:29;;;;;;;9.25;2.50;;;;;;;;;;5007997;28;20091;-73
2024/01/23 13:55:54;;;;;;;11.05;3.20;;;;;;;;;;5028693;28;20029;-74
2024/01/23 13:58:20;;;;;;;13.60;2.63;;;;;;;;;;5027333;28;20124;-73
2024/01/23 14:00:45;;;;;;;10.90;2.75;;;;;;;;;;5031254;28;20987;-73
2024/01/23 14:03:11;;;;;;;11.52;2.70;;;;;;;;;;5035333;28;20049;-73
2024/01/23 14:05:36;;;;;;;6.25;2.30;;;;;;;;;;5029981;28;20122;-73
2024/01/23 14:08:02;;;;;;;6.50;2.28;;;;;;;;;;5016477;28;20037;-73
2024/01/23 14:10:28;;;;;;;9.30;3.67;;;;;;;;;;5028061;28;20501;-73
2024/01/23 14:12:54;;;;;;;9.75;2.88;;;;;;;;;;5036131;28;20111;-73
2024/01/23 14:15:20;;;;;;;12.98;3.03;;;;;;;;;;5026496;28;20076;-73
2024/01/23 14:17:49;;;;;;;8.10;2.92;;;;;;;;;;5037129;28;20128;-73
2024/01/23 14:20:15;;;;;;;6.88;2.53;;;;;;;;;;5019131;28;20572;-73
2024/01/23 14:22:45;;;;;;;7.25;2.35;;;;;;;;;;5022733;28;20045;-73
2024/01/23 14:25:12;;;;;;;10.15;2.92;;;;;;;;;;5018558;28;20045;-73
2024/01/23 14:27:42;;;;;;;9.95;2.70;;;;;;;;;;5023981;28;20060;-74
2024/01/23 14:30:11;;;;;;;7.82;2.83;;;;;;;;;;5034867;28;20047;-73
2024/01/23 14:32:36;;;;;;;7.80;2.53;;;;;;;;;;5034377;28;20922;-73
2024/01/23 14:35:02;;;;;;;10.07;3.65;;;;;;;;;;5028656;28;20045;-73